createdAt,value
2018-05-24T00:00:04.469Z,1017.4
2018-05-24T00:01:06.799Z,1017.4
2018-05-24T00:02:08.828Z,1017.4
2018-05-24T00:03:11.155Z,1017.4
2018-05-24T00:04:13.191Z,1017.4
2018-05-24T00:05:15.230Z,1017.5
2018-05-24T00:06:17.578Z,1017.5
2018-05-24T00:07:19.612Z,1017.5
2018-05-24T00:08:22.045Z,1017.5
2018-05-24T00:09:24.385Z,1017.5
2018-05-24T00:10:26.417Z,1017.5
2018-05-24T00:11:28.736Z,1017.5
2018-05-24T00:12:30.778Z,1017.6
2018-05-24T00:13:32.817Z,1017.6
2018-05-24T00:14:34.869Z,1017.6
2018-05-24T00:15:36.906Z,1017.6
2018-05-24T00:16:38.948Z,1017.6
2018-05-24T00:17:40.991Z,1017.6
2018-05-24T00:18:43.031Z,1017.6
2018-05-24T00:19:45.070Z,1017.6
2018-05-24T00:20:47.105Z,1017.6
2018-05-24T00:21:49.140Z,1017.6
2018-05-24T00:22:51.465Z,1017.7
2018-05-24T00:23:53.492Z,1017.6
2018-05-24T00:24:55.537Z,1017.6
2018-05-24T00:25:57.570Z,1017.6
2018-05-24T00:26:59.607Z,1017.6
2018-05-24T00:28:01.653Z,1017.7
2018-05-24T00:29:03.976Z,1017.7
2018-05-24T00:30:06.012Z,1017.6
2018-05-24T00:31:08.063Z,1017.7
2018-05-24T00:32:10.091Z,1017.7
2018-05-24T00:33:12.149Z,1017.7
2018-05-24T00:34:14.170Z,1017.7
2018-05-24T00:35:16.218Z,1017.7
2018-05-24T00:36:18.291Z,1017.8
2018-05-24T00:37:20.630Z,1017.8
2018-05-24T00:38:22.665Z,1017.8
2018-05-24T00:39:24.705Z,1017.8
2018-05-24T00:40:26.733Z,1017.7
2018-05-24T00:41:28.786Z,1017.8
2018-05-24T00:42:30.816Z,1017.7
2018-05-24T00:43:32.861Z,1017.7
2018-05-24T00:44:35.202Z,1017.7
2018-05-24T00:45:37.241Z,1017.7
2018-05-24T00:46:39.572Z,1017.7
2018-05-24T00:47:41.899Z,1017.7
2018-05-24T00:48:43.932Z,1017.7
2018-05-24T00:49:45.974Z,1017.7
2018-05-24T00:50:48.003Z,1017.7
2018-05-24T00:51:50.041Z,1017.7
2018-05-24T00:52:52.078Z,1017.7
2018-05-24T00:53:54.114Z,1017.7
2018-05-24T00:54:56.527Z,1017.7
2018-05-24T00:55:58.584Z,1017.7
2018-05-24T00:57:00.625Z,1017.7
2018-05-24T00:58:03.045Z,1017.7
2018-05-24T00:59:05.401Z,1017.7
2018-05-24T01:00:08.109Z,1017.7
2018-05-24T01:01:10.147Z,1017.7
2018-05-24T01:02:12.184Z,1017.6
2018-05-24T01:03:14.516Z,1017.6
2018-05-24T01:04:16.568Z,1017.6
2018-05-24T01:05:18.603Z,1017.6
2018-05-24T01:06:20.665Z,1017.6
2018-05-24T01:07:22.710Z,1017.5
2018-05-24T01:08:24.745Z,1017.6
2018-05-24T01:09:26.782Z,1017.5
2018-05-24T01:10:28.822Z,1017.5
2018-05-24T01:11:30.866Z,1017.5
2018-05-24T01:12:33.297Z,1017.5
2018-05-24T01:13:35.709Z,1017.5
2018-05-24T01:14:37.751Z,1017.5
2018-05-24T01:15:39.790Z,1017.5
2018-05-24T01:16:41.826Z,1017.6
2018-05-24T01:17:43.869Z,1017.5
2018-05-24T01:18:45.913Z,1017.5
2018-05-24T01:19:47.954Z,1017.6
2018-05-24T01:20:49.986Z,1017.6
2018-05-24T01:21:52.031Z,1017.6
2018-05-24T01:22:54.079Z,1017.6
2018-05-24T01:23:56.493Z,1017.6
2018-05-24T01:24:58.537Z,1017.6
2018-05-24T01:26:00.581Z,1017.7
2018-05-24T01:27:02.614Z,1017.7
2018-05-24T01:28:04.649Z,1017.7
2018-05-24T01:29:06.687Z,1017.7
2018-05-24T01:30:09.493Z,1017.7
2018-05-24T01:31:11.540Z,1017.7
2018-05-24T01:32:13.583Z,1017.7
2018-05-24T01:33:15.619Z,1017.7
2018-05-24T01:34:17.656Z,1017.7
2018-05-24T01:35:20.076Z,1017.7
2018-05-24T01:36:22.132Z,1017.7
2018-05-24T01:37:24.180Z,1017.7
2018-05-24T01:38:26.201Z,1017.7
2018-05-24T01:39:28.251Z,1017.7
2018-05-24T01:40:30.671Z,1017.7
2018-05-24T01:41:32.698Z,1017.7
2018-05-24T01:42:34.738Z,1017.7
2018-05-24T01:43:36.781Z,1017.7
2018-05-24T01:44:38.824Z,1017.7
2018-05-24T01:45:40.852Z,1017.8
2018-05-24T01:46:42.888Z,1017.8
2018-05-24T01:47:44.941Z,1017.7
2018-05-24T01:48:47.249Z,1017.8
2018-05-24T01:49:49.290Z,1017.7
2018-05-24T01:50:51.324Z,1017.7
2018-05-24T01:51:53.361Z,1017.7
2018-05-24T01:52:55.396Z,1017.7
2018-05-24T01:53:57.436Z,1017.8
2018-05-24T01:54:59.492Z,1017.8
2018-05-24T01:56:01.517Z,1017.7
2018-05-24T01:57:03.543Z,1017.7
2018-05-24T01:58:05.591Z,1017.7
2018-05-24T01:59:07.631Z,1017.7
2018-05-24T02:00:10.244Z,1017.7
2018-05-24T02:01:12.285Z,1017.7
2018-05-24T02:02:14.323Z,1017.7
2018-05-24T02:03:16.367Z,1017.7
2018-05-24T02:04:18.385Z,1017.7
2018-05-24T02:05:20.722Z,1017.6
2018-05-24T02:06:22.770Z,1017.6
2018-05-24T02:07:24.800Z,1017.6
2018-05-24T02:08:26.843Z,1017.7
2018-05-24T02:09:28.865Z,1017.7
2018-05-24T02:10:30.897Z,1017.6
2018-05-24T02:11:32.947Z,1017.7
2018-05-24T02:12:34.979Z,1017.7
2018-05-24T02:13:37.017Z,1017.7
2018-05-24T02:14:39.058Z,1017.7
2018-05-24T02:15:41.096Z,1017.7
2018-05-24T02:16:43.140Z,1017.7
2018-05-24T02:17:45.454Z,1017.7
2018-05-24T02:18:47.502Z,1017.7
2018-05-24T02:19:49.542Z,1017.7
2018-05-24T02:20:51.567Z,1017.7
2018-05-24T02:21:53.610Z,1017.7
2018-05-24T02:22:55.650Z,1017.7
2018-05-24T02:23:57.686Z,1017.7
2018-05-24T02:24:59.729Z,1017.6
2018-05-24T02:26:01.754Z,1017.6
2018-05-24T02:27:03.794Z,1017.6
2018-05-24T02:28:05.821Z,1017.7
2018-05-24T02:29:07.876Z,1017.6
2018-05-24T02:30:10.315Z,1017.6
2018-05-24T02:31:12.350Z,1017.6
2018-05-24T02:32:15.088Z,1017.6
2018-05-24T02:33:17.120Z,1017.6
2018-05-24T02:34:19.151Z,1017.6
2018-05-24T02:35:21.576Z,1017.6
2018-05-24T02:36:23.604Z,1017.6
2018-05-24T02:37:26.050Z,1017.6
2018-05-24T02:38:28.097Z,1017.6
2018-05-24T02:39:30.126Z,1017.6
2018-05-24T02:40:32.167Z,1017.6
2018-05-24T02:41:34.207Z,1017.6
2018-05-24T02:42:36.239Z,1017.6
2018-05-24T02:43:39.371Z,1017.6
2018-05-24T02:44:41.702Z,1017.6
2018-05-24T02:45:43.745Z,1017.6
2018-05-24T02:46:46.067Z,1017.6
2018-05-24T02:47:48.102Z,1017.6
2018-05-24T02:48:50.425Z,1017.6
2018-05-24T02:49:52.455Z,1017.5
2018-05-24T02:50:55.094Z,1017.6
2018-05-24T02:51:57.149Z,1017.6
2018-05-24T02:52:59.192Z,1017.6
2018-05-24T02:54:01.223Z,1017.6
2018-05-24T02:55:03.648Z,1017.5
2018-05-24T02:56:05.680Z,1017.5
2018-05-24T02:57:08.031Z,1017.5
2018-05-24T02:58:10.461Z,1017.5
2018-05-24T02:59:12.511Z,1017.5
2018-05-24T03:00:14.826Z,1017.5
2018-05-24T03:01:16.858Z,1017.5
2018-05-24T03:02:19.185Z,1017.5
2018-05-24T03:03:21.513Z,1017.5
2018-05-24T03:04:23.827Z,1017.5
2018-05-24T03:05:26.265Z,1017.5
2018-05-24T03:06:28.614Z,1017.5
2018-05-24T03:07:30.651Z,1017.5
2018-05-24T03:08:32.686Z,1017.5
2018-05-24T03:09:34.719Z,1017.5
2018-05-24T03:10:36.768Z,1017.5
2018-05-24T03:11:38.798Z,1017.5
2018-05-24T03:12:41.128Z,1017.5
2018-05-24T03:13:43.173Z,1017.5
2018-05-24T03:14:45.555Z,1017.5
2018-05-24T03:15:47.531Z,1017.5
2018-05-24T03:16:49.948Z,1017.5
2018-05-24T03:17:52.386Z,1017.4
2018-05-24T03:18:54.719Z,1017.4
2018-05-24T03:19:56.741Z,1017.4
2018-05-24T03:20:59.174Z,1017.4
2018-05-24T03:22:01.212Z,1017.5
2018-05-24T03:23:03.254Z,1017.5
2018-05-24T03:24:05.296Z,1017.5
2018-05-24T03:25:07.331Z,1017.5
2018-05-24T03:26:09.361Z,1017.5
2018-05-24T03:27:11.406Z,1017.5
2018-05-24T03:28:13.447Z,1017.4
2018-05-24T03:29:15.473Z,1017.5
2018-05-24T03:30:17.818Z,1017.4
2018-05-24T03:31:20.626Z,1017.5
2018-05-24T03:32:22.671Z,1017.5
2018-05-24T03:33:24.693Z,1017.4
2018-05-24T03:34:26.736Z,1017.4
2018-05-24T03:35:28.770Z,1017.5
2018-05-24T03:36:30.804Z,1017.4
2018-05-24T03:37:33.223Z,1017.5
2018-05-24T03:38:35.283Z,1017.5
2018-05-24T03:39:37.298Z,1017.4
2018-05-24T03:40:39.725Z,1017.5
2018-05-24T03:41:41.744Z,1017.5
2018-05-24T03:42:43.789Z,1017.5
2018-05-24T03:43:46.113Z,1017.4
2018-05-24T03:44:48.436Z,1017.5
2018-05-24T03:45:50.481Z,1017.5
2018-05-24T03:46:52.515Z,1017.5
2018-05-24T03:47:54.557Z,1017.5
2018-05-24T03:48:56.601Z,1017.5
2018-05-24T03:49:58.627Z,1017.5
2018-05-24T03:51:00.972Z,1017.5
2018-05-24T03:52:03.096Z,1017.5
2018-05-24T03:53:05.469Z,1017.5
2018-05-24T03:54:07.511Z,1017.5
2018-05-24T03:55:09.540Z,1017.5
2018-05-24T03:56:11.578Z,1017.5
2018-05-24T03:57:13.621Z,1017.4
2018-05-24T03:58:15.656Z,1017.5
2018-05-24T03:59:17.705Z,1017.5
2018-05-24T04:00:19.729Z,1017.5
2018-05-24T04:01:21.773Z,1017.5
2018-05-24T04:02:23.817Z,1017.5
2018-05-24T04:03:25.852Z,1017.5
2018-05-24T04:04:27.892Z,1017.5
2018-05-24T04:05:29.924Z,1017.5
2018-05-24T04:06:32.234Z,1017.6
2018-05-24T04:07:34.573Z,1017.6
2018-05-24T04:08:36.607Z,1017.6
2018-05-24T04:09:38.642Z,1017.6
2018-05-24T04:10:40.677Z,1017.6
2018-05-24T04:11:42.720Z,1017.6
2018-05-24T04:12:44.810Z,1017.6
2018-05-24T04:13:46.802Z,1017.6
2018-05-24T04:14:49.229Z,1017.6
2018-05-24T04:15:51.556Z,1017.6
2018-05-24T04:16:53.878Z,1017.6
2018-05-24T04:17:55.933Z,1017.7
2018-05-24T04:18:58.261Z,1017.6
2018-05-24T04:20:00.295Z,1017.6
2018-05-24T04:21:02.339Z,1017.6
2018-05-24T04:22:04.658Z,1017.7
2018-05-24T04:23:07.039Z,1017.7
2018-05-24T04:24:09.051Z,1017.7
2018-05-24T04:25:11.658Z,1017.7
2018-05-24T04:26:13.996Z,1017.7
2018-05-24T04:27:16.726Z,1017.6
2018-05-24T04:28:18.760Z,1017.6
2018-05-24T04:29:20.798Z,1017.6
2018-05-24T04:30:22.835Z,1017.6
2018-05-24T04:31:24.877Z,1017.6
2018-05-24T04:32:26.921Z,1017.6
2018-05-24T04:33:28.961Z,1017.6
2018-05-24T04:34:31.005Z,1017.7
2018-05-24T04:35:33.055Z,1017.7
2018-05-24T04:36:35.101Z,1017.7
2018-05-24T04:37:37.140Z,1017.7
2018-05-24T04:38:39.177Z,1017.7
2018-05-24T04:39:41.514Z,1017.7
2018-05-24T04:40:43.551Z,1017.7
2018-05-24T04:41:45.596Z,1017.7
2018-05-24T04:42:47.636Z,1017.6
2018-05-24T04:43:49.680Z,1017.7
2018-05-24T04:44:51.709Z,1017.7
2018-05-24T04:45:53.746Z,1017.7
2018-05-24T04:46:55.793Z,1017.7
2018-05-24T04:47:57.840Z,1017.7
2018-05-24T04:49:00.164Z,1017.7
2018-05-24T04:50:02.213Z,1017.7
2018-05-24T04:51:04.535Z,1017.7
2018-05-24T04:52:06.636Z,1017.7
2018-05-24T04:53:08.619Z,1017.7
2018-05-24T04:54:10.667Z,1017.6
2018-05-24T04:55:12.703Z,1017.7
2018-05-24T04:56:14.754Z,1017.7
2018-05-24T04:57:17.160Z,1017.7
2018-05-24T04:58:19.216Z,1017.6
2018-05-24T04:59:21.547Z,1017.6
2018-05-24T05:00:23.596Z,1017.6
2018-05-24T05:01:25.946Z,1017.6
2018-05-24T05:02:27.980Z,1017.6
2018-05-24T05:03:30.313Z,1017.6
2018-05-24T05:04:32.355Z,1017.7
2018-05-24T05:05:34.386Z,1017.7
2018-05-24T05:06:36.452Z,1017.6
2018-05-24T05:07:38.482Z,1017.7
2018-05-24T05:08:40.526Z,1017.7
2018-05-24T05:09:42.559Z,1017.7
2018-05-24T05:10:44.595Z,1017.6
2018-05-24T05:11:46.628Z,1017.7
2018-05-24T05:12:48.671Z,1017.7
2018-05-24T05:13:50.988Z,1017.7
2018-05-24T05:14:53.343Z,1017.8
2018-05-24T05:15:55.368Z,1017.8
2018-05-24T05:16:57.998Z,1017.8
2018-05-24T05:18:00.042Z,1017.7
2018-05-24T05:19:02.079Z,1017.8
2018-05-24T05:20:04.127Z,1017.8
2018-05-24T05:21:06.155Z,1017.8
2018-05-24T05:22:08.195Z,1017.8
2018-05-24T05:23:10.660Z,1017.8
2018-05-24T05:24:12.590Z,1017.7
2018-05-24T05:25:14.637Z,1017.7
2018-05-24T05:26:16.664Z,1017.7
2018-05-24T05:27:19.097Z,1017.7
2018-05-24T05:28:21.127Z,1017.8
2018-05-24T05:29:23.161Z,1017.8
2018-05-24T05:30:25.215Z,1017.8
2018-05-24T05:31:27.249Z,1017.8
2018-05-24T05:32:29.976Z,1017.7
2018-05-24T05:33:32.025Z,1017.7
2018-05-24T05:34:34.065Z,1017.7
2018-05-24T05:35:36.106Z,1017.7
2018-05-24T05:36:38.540Z,1017.6
2018-05-24T05:37:40.591Z,1017.6
2018-05-24T05:38:42.942Z,1017.6
2018-05-24T05:39:44.961Z,1017.6
2018-05-24T05:40:47.294Z,1017.5
2018-05-24T05:41:49.331Z,1017.6
2018-05-24T05:42:51.363Z,1017.5
2018-05-24T05:43:53.402Z,1017.5
2018-05-24T05:44:55.450Z,1017.6
2018-05-24T05:45:57.984Z,1017.6
2018-05-24T05:47:00.012Z,1017.6
2018-05-24T05:48:02.351Z,1017.6
2018-05-24T05:49:04.403Z,1017.6
2018-05-24T05:50:06.434Z,1017.6
2018-05-24T05:51:08.478Z,1017.6
2018-05-24T05:52:10.534Z,1017.6
2018-05-24T05:53:12.558Z,1017.7
2018-05-24T05:54:14.596Z,1017.6
2018-05-24T05:55:17.018Z,1017.6
2018-05-24T05:56:19.059Z,1017.6
2018-05-24T05:57:21.093Z,1017.6
2018-05-24T05:58:23.988Z,1017.6
2018-05-24T05:59:26.413Z,1017.7
2018-05-24T06:00:28.448Z,1017.7
2018-05-24T06:01:30.840Z,1017.8
2018-05-24T06:02:32.837Z,1017.7
2018-05-24T06:03:34.862Z,1017.7
2018-05-24T06:04:36.913Z,1017.7
2018-05-24T06:05:38.954Z,1017.7
2018-05-24T06:06:41.000Z,1017.7
2018-05-24T06:07:43.326Z,1017.7
2018-05-24T06:08:45.361Z,1017.7
2018-05-24T06:09:47.798Z,1017.7
2018-05-24T06:10:49.826Z,1017.7
2018-05-24T06:11:51.872Z,1017.7
2018-05-24T06:12:54.202Z,1017.7
2018-05-24T06:13:56.275Z,1017.7
2018-05-24T06:14:58.281Z,1017.7
2018-05-24T06:16:00.315Z,1017.7
2018-05-24T06:17:02.354Z,1017.8
2018-05-24T06:18:04.391Z,1017.8
2018-05-24T06:19:06.431Z,1017.8
2018-05-24T06:20:08.479Z,1017.8
2018-05-24T06:21:10.520Z,1017.9
2018-05-24T06:22:12.934Z,1017.9
2018-05-24T06:23:14.981Z,1017.9
2018-05-24T06:24:17.022Z,1017.9
2018-05-24T06:25:19.068Z,1017.9
2018-05-24T06:26:21.113Z,1017.9
2018-05-24T06:27:23.159Z,1017.9
2018-05-24T06:28:25.554Z,1017.9
2018-05-24T06:29:27.545Z,1018
2018-05-24T06:30:29.588Z,1017.9
2018-05-24T06:31:31.637Z,1017.9
2018-05-24T06:32:33.966Z,1017.9
2018-05-24T06:33:36.007Z,1017.9
2018-05-24T06:34:38.056Z,1017.9
2018-05-24T06:35:40.085Z,1017.9
2018-05-24T06:36:42.530Z,1017.9
2018-05-24T06:37:44.569Z,1017.9
2018-05-24T06:38:46.608Z,1017.9
2018-05-24T06:39:48.652Z,1017.9
2018-05-24T06:40:50.696Z,1017.9
2018-05-24T06:41:52.785Z,1017.9
2018-05-24T06:42:55.234Z,1018
2018-05-24T06:43:57.273Z,1018
2018-05-24T06:44:59.325Z,1018
2018-05-24T06:46:01.422Z,1017.9
2018-05-24T06:47:03.701Z,1017.9
2018-05-24T06:48:05.798Z,1017.9
2018-05-24T06:49:08.535Z,1017.9
2018-05-24T06:50:10.577Z,1017.9
2018-05-24T06:51:12.615Z,1017.9
2018-05-24T06:52:14.656Z,1017.9
2018-05-24T06:53:16.704Z,1017.9
2018-05-24T06:54:18.752Z,1018
2018-05-24T06:55:20.805Z,1018
2018-05-24T06:56:23.130Z,1018
2018-05-24T06:57:25.557Z,1018
2018-05-24T06:58:27.599Z,1018
2018-05-24T06:59:29.643Z,1018
2018-05-24T07:00:31.687Z,1018
2018-05-24T07:01:33.739Z,1018
2018-05-24T07:02:35.785Z,1018
2018-05-24T07:03:37.829Z,1018
2018-05-24T07:04:39.857Z,1018
2018-05-24T07:05:41.907Z,1018
2018-05-24T07:06:43.957Z,1018
2018-05-24T07:07:46.281Z,1018
2018-05-24T07:08:48.330Z,1018
2018-05-24T07:09:50.365Z,1018
2018-05-24T07:10:52.410Z,1018
2018-05-24T07:11:54.781Z,1018
2018-05-24T07:12:56.819Z,1018
2018-05-24T07:13:58.863Z,1018
2018-05-24T07:15:00.899Z,1018
2018-05-24T07:16:02.939Z,1018
2018-05-24T07:17:04.998Z,1018
2018-05-24T07:18:07.038Z,1018.1
2018-05-24T07:19:09.080Z,1018
2018-05-24T07:20:11.125Z,1018
2018-05-24T07:21:13.165Z,1017.9
2018-05-24T07:22:15.205Z,1017.9
2018-05-24T07:23:17.250Z,1017.9
2018-05-24T07:24:19.587Z,1017.9
2018-05-24T07:25:21.627Z,1018
2018-05-24T07:26:23.952Z,1018
2018-05-24T07:27:26.002Z,1017.9
2018-05-24T07:28:28.046Z,1017.9
2018-05-24T07:29:30.089Z,1017.9
2018-05-24T07:30:32.142Z,1017.9
2018-05-24T07:31:34.186Z,1017.9
2018-05-24T07:32:36.231Z,1017.9
2018-05-24T07:33:38.275Z,1017.9
2018-05-24T07:34:40.314Z,1017.9
2018-05-24T07:35:42.368Z,1018
2018-05-24T07:36:44.796Z,1018
2018-05-24T07:37:46.841Z,1018
2018-05-24T07:38:49.284Z,1018
2018-05-24T07:39:51.323Z,1017.9
2018-05-24T07:40:53.666Z,1017.9
2018-05-24T07:41:55.708Z,1018
2018-05-24T07:42:57.761Z,1018
2018-05-24T07:43:59.812Z,1018
2018-05-24T07:45:01.904Z,1018
2018-05-24T07:46:04.328Z,1017.9
2018-05-24T07:47:06.373Z,1017.9
2018-05-24T07:48:08.804Z,1017.9
2018-05-24T07:49:11.248Z,1017.9
2018-05-24T07:50:13.277Z,1017.9
2018-05-24T07:51:15.324Z,1017.9
2018-05-24T07:52:17.372Z,1017.9
2018-05-24T07:53:19.411Z,1017.9
2018-05-24T07:54:21.457Z,1017.9
2018-05-24T07:55:23.888Z,1017.9
2018-05-24T07:56:25.936Z,1017.9
2018-05-24T07:57:27.991Z,1017.9
2018-05-24T07:58:30.328Z,1017.9
2018-05-24T07:59:32.379Z,1018
2018-05-24T08:00:34.426Z,1017.9
2018-05-24T08:01:36.472Z,1017.9
2018-05-24T08:02:38.507Z,1017.9
2018-05-24T08:03:40.549Z,1017.9
2018-05-24T08:04:42.592Z,1017.9
2018-05-24T08:05:44.644Z,1017.9
2018-05-24T08:06:46.681Z,1017.8
2018-05-24T08:07:49.030Z,1017.9
2018-05-24T08:08:51.653Z,1017.9
2018-05-24T08:09:53.701Z,1017.8
2018-05-24T08:10:56.434Z,1017.8
2018-05-24T08:11:58.469Z,1017.9
2018-05-24T08:13:00.898Z,1017.9
2018-05-24T08:14:03.242Z,1018
2018-05-24T08:15:05.291Z,1017.9
2018-05-24T08:16:07.346Z,1017.9
2018-05-24T08:17:09.385Z,1017.9
2018-05-24T08:18:11.441Z,1017.9
2018-05-24T08:19:13.479Z,1017.9
2018-05-24T08:20:15.832Z,1017.9
2018-05-24T08:21:18.168Z,1017.8
2018-05-24T08:22:20.214Z,1017.9
2018-05-24T08:23:22.266Z,1017.9
2018-05-24T08:24:24.316Z,1017.8
2018-05-24T08:25:26.348Z,1017.8
2018-05-24T08:26:28.391Z,1017.8
2018-05-24T08:27:30.446Z,1017.8
2018-05-24T08:28:32.806Z,1017.8
2018-05-24T08:29:34.852Z,1017.8
2018-05-24T08:30:36.898Z,1017.8
2018-05-24T08:31:38.943Z,1017.8
2018-05-24T08:32:40.997Z,1017.8
2018-05-24T08:33:43.347Z,1017.8
2018-05-24T08:34:46.172Z,1017.8
2018-05-24T08:35:48.890Z,1017.8
2018-05-24T08:36:50.933Z,1017.8
2018-05-24T08:37:52.979Z,1017.8
2018-05-24T08:38:55.028Z,1017.7
2018-05-24T08:39:57.069Z,1017.8
2018-05-24T08:40:59.265Z,1017.7
2018-05-24T08:42:01.157Z,1017.7
2018-05-24T08:43:03.201Z,1017.7
2018-05-24T08:44:05.247Z,1017.7
2018-05-24T08:45:07.296Z,1017.6
2018-05-24T08:46:09.343Z,1017.7
2018-05-24T08:47:11.816Z,1017.7
2018-05-24T08:48:13.754Z,1017.7
2018-05-24T08:49:15.792Z,1017.7
2018-05-24T08:50:17.844Z,1017.7
2018-05-24T08:51:19.900Z,1017.7
2018-05-24T08:52:21.948Z,1017.7
2018-05-24T08:53:24.050Z,1017.7
2018-05-24T08:54:26.041Z,1017.7
2018-05-24T08:55:28.099Z,1017.6
2018-05-24T08:56:30.130Z,1017.6
2018-05-24T08:57:32.470Z,1017.6
2018-05-24T08:58:34.525Z,1017.6
2018-05-24T08:59:36.569Z,1017.7
2018-05-24T09:00:38.623Z,1017.6
2018-05-24T09:01:40.669Z,1017.7
2018-05-24T09:02:42.718Z,1017.7
2018-05-24T09:03:45.053Z,1017.6
2018-05-24T09:04:47.106Z,1017.5
2018-05-24T09:05:49.144Z,1017.5
2018-05-24T09:06:51.192Z,1017.6
2018-05-24T09:07:53.533Z,1017.6
2018-05-24T09:08:55.584Z,1017.6
2018-05-24T09:09:57.916Z,1017.6
2018-05-24T09:10:59.966Z,1017.6
2018-05-24T09:12:02.021Z,1017.5
2018-05-24T09:13:04.458Z,1017.6
2018-05-24T09:14:06.495Z,1017.6
2018-05-24T09:15:08.553Z,1017.5
2018-05-24T09:16:10.605Z,1017.5
2018-05-24T09:17:12.652Z,1017.6
2018-05-24T09:18:14.706Z,1017.5
2018-05-24T09:19:17.436Z,1017.5
2018-05-24T09:20:19.771Z,1017.5
2018-05-24T09:21:21.816Z,1017.5
2018-05-24T09:22:23.917Z,1017.5
2018-05-24T09:23:26.265Z,1017.4
2018-05-24T09:24:28.308Z,1017.5
2018-05-24T09:25:30.651Z,1017.5
2018-05-24T09:26:32.705Z,1017.6
2018-05-24T09:27:35.059Z,1017.5
2018-05-24T09:28:37.427Z,1017.5
2018-05-24T09:29:40.161Z,1017.5
2018-05-24T09:30:42.204Z,1017.5
2018-05-24T09:31:44.262Z,1017.4
2018-05-24T09:32:46.310Z,1017.4
2018-05-24T09:33:48.363Z,1017.5
2018-05-24T09:34:50.415Z,1017.5
2018-05-24T09:35:52.470Z,1017.5
2018-05-24T09:36:54.912Z,1017.5
2018-05-24T09:37:57.026Z,1017.5
2018-05-24T09:38:59.134Z,1017.4
2018-05-24T09:40:03.437Z,1017.5
2018-05-24T09:41:05.717Z,1017.5
2018-05-24T09:42:08.238Z,1017.5
2018-05-24T09:43:10.800Z,1017.5
2018-05-24T09:44:14.753Z,1017.4
2018-05-24T09:45:17.196Z,1017.5
2018-05-24T09:46:19.862Z,1017.5
2018-05-24T09:47:22.539Z,1017.5
2018-05-24T09:48:24.938Z,1017.4
2018-05-24T09:49:28.063Z,1017.4
2018-05-24T09:50:31.921Z,1017.4
2018-05-24T09:51:34.031Z,1017.4
2018-05-24T09:52:36.655Z,1017.4
2018-05-24T09:53:39.213Z,1017.4
2018-05-24T09:54:41.436Z,1017.3
2018-05-24T09:55:43.787Z,1017.3
2018-05-24T09:56:46.795Z,1017.3
2018-05-24T09:57:49.531Z,1017.3
2018-05-24T09:58:52.296Z,1017.3
2018-05-24T09:59:54.749Z,1017.3
2018-05-24T10:00:56.829Z,1017.3
2018-05-24T10:01:58.985Z,1017.3
2018-05-24T10:03:01.483Z,1017.4
2018-05-24T10:04:04.005Z,1017.3
2018-05-24T10:05:06.093Z,1017.4
2018-05-24T10:06:09.142Z,1017.3
2018-05-24T10:07:11.376Z,1017.2
2018-05-24T10:08:13.480Z,1017.3
2018-05-24T10:09:16.486Z,1017.3
2018-05-24T10:10:19.279Z,1017.3
2018-05-24T10:11:21.360Z,1017.2
2018-05-24T10:12:23.823Z,1017.2
2018-05-24T10:13:26.174Z,1017.2
2018-05-24T10:14:28.434Z,1017.2
2018-05-24T10:15:30.661Z,1017.2
2018-05-24T10:16:32.979Z,1017.2
2018-05-24T10:17:35.885Z,1017.2
2018-05-24T10:18:38.412Z,1017.1
2018-05-24T10:19:40.779Z,1017.2
2018-05-24T10:20:43.333Z,1017.2
2018-05-24T10:21:46.254Z,1017.1
2018-05-24T10:22:48.848Z,1017.1
2018-05-24T10:23:50.924Z,1017.1
2018-05-24T10:24:53.462Z,1017.1
2018-05-24T10:25:55.613Z,1017.1
2018-05-24T10:26:57.743Z,1017
2018-05-24T10:28:00.621Z,1017
2018-05-24T10:29:03.907Z,1017
2018-05-24T10:30:06.195Z,1017
2018-05-24T10:31:09.239Z,1017
2018-05-24T10:32:12.006Z,1017
2018-05-24T10:33:14.113Z,1017
2018-05-24T10:34:16.174Z,1016.9
2018-05-24T10:35:18.211Z,1017
2018-05-24T10:36:20.233Z,1017
2018-05-24T10:37:22.293Z,1017
2018-05-24T10:38:25.024Z,1017
2018-05-24T10:39:27.120Z,1017
2018-05-24T10:40:29.885Z,1017
2018-05-24T10:41:32.252Z,1016.9
2018-05-24T10:42:34.321Z,1016.9
2018-05-24T10:43:36.373Z,1017
2018-05-24T10:44:38.438Z,1017
2018-05-24T10:45:40.784Z,1016.9
2018-05-24T10:46:42.828Z,1016.9
2018-05-24T10:47:45.217Z,1017
2018-05-24T10:48:47.308Z,1016.9
2018-05-24T10:49:49.403Z,1016.9
2018-05-24T10:50:52.166Z,1016.9
2018-05-24T10:51:54.658Z,1017
2018-05-24T10:52:56.716Z,1016.9
2018-05-24T10:53:59.090Z,1016.9
2018-05-24T10:55:01.150Z,1017
2018-05-24T10:56:03.246Z,1017
2018-05-24T10:57:05.319Z,1016.9
2018-05-24T10:58:07.380Z,1016.9
2018-05-24T10:59:09.438Z,1016.9
2018-05-24T11:00:11.502Z,1016.8
2018-05-24T11:01:14.241Z,1016.8
2018-05-24T11:02:16.710Z,1016.8
2018-05-24T11:03:18.820Z,1016.9
2018-05-24T11:04:21.217Z,1016.8
2018-05-24T11:05:23.280Z,1016.8
2018-05-24T11:06:25.645Z,1016.8
2018-05-24T11:07:28.196Z,1016.9
2018-05-24T11:08:30.246Z,1016.8
2018-05-24T11:09:32.300Z,1016.8
2018-05-24T11:10:34.364Z,1016.8
2018-05-24T11:11:36.435Z,1016.8
2018-05-24T11:12:38.476Z,1016.8
2018-05-24T11:13:40.538Z,1016.8
2018-05-24T11:14:42.597Z,1016.8
2018-05-24T11:15:44.657Z,1016.7
2018-05-24T11:16:47.004Z,1016.8
2018-05-24T11:17:49.067Z,1016.7
2018-05-24T11:18:51.132Z,1016.8
2018-05-24T11:19:53.189Z,1016.8
2018-05-24T11:20:55.267Z,1016.8
2018-05-24T11:21:57.320Z,1016.8
2018-05-24T11:22:59.744Z,1016.8
2018-05-24T11:24:01.812Z,1016.8
2018-05-24T11:25:04.207Z,1016.8
2018-05-24T11:26:06.610Z,1016.8
2018-05-24T11:27:08.665Z,1016.7
2018-05-24T11:28:10.724Z,1016.7
2018-05-24T11:29:12.781Z,1016.7
2018-05-24T11:30:14.832Z,1016.7
2018-05-24T11:31:17.178Z,1016.7
2018-05-24T11:32:19.247Z,1016.7
2018-05-24T11:33:21.600Z,1016.7
2018-05-24T11:34:23.664Z,1016.7
2018-05-24T11:35:25.721Z,1016.7
2018-05-24T11:36:28.073Z,1016.6
2018-05-24T11:37:30.126Z,1016.6
2018-05-24T11:38:32.177Z,1016.7
2018-05-24T11:39:34.245Z,1016.6
2018-05-24T11:40:37.201Z,1016.6
2018-05-24T11:41:39.540Z,1016.6
2018-05-24T11:42:41.618Z,1016.6
2018-05-24T11:43:44.066Z,1016.6
2018-05-24T11:44:46.126Z,1016.6
2018-05-24T11:45:48.190Z,1016.5
2018-05-24T11:46:50.257Z,1016.6
2018-05-24T11:47:52.596Z,1016.5
2018-05-24T11:48:54.937Z,1016.5
2018-05-24T11:49:57.000Z,1016.5
2018-05-24T11:50:59.071Z,1016.5
2018-05-24T11:52:01.267Z,1016.5
2018-05-24T11:53:03.183Z,1016.5
2018-05-24T11:54:05.555Z,1016.5
2018-05-24T11:55:07.609Z,1016.5
2018-05-24T11:56:09.678Z,1016.4
2018-05-24T11:57:11.741Z,1016.3
2018-05-24T11:58:13.800Z,1016.4
2018-05-24T11:59:15.861Z,1016.4
2018-05-24T12:00:17.917Z,1016.4
2018-05-24T12:01:20.672Z,1016.3
2018-05-24T12:02:22.733Z,1016.4
2018-05-24T12:03:24.793Z,1016.4
2018-05-24T12:04:26.859Z,1016.4
2018-05-24T12:05:28.912Z,1016.3
2018-05-24T12:06:30.973Z,1016.4
2018-05-24T12:07:33.025Z,1016.3
2018-05-24T12:08:35.089Z,1016.2
2018-05-24T12:09:37.158Z,1016.2
2018-05-24T12:10:39.517Z,1016.2
2018-05-24T12:11:41.582Z,1016.3
2018-05-24T12:12:43.955Z,1016.3
2018-05-24T12:13:46.010Z,1016.2
2018-05-24T12:14:48.075Z,1016.2
2018-05-24T12:15:50.123Z,1016.2
2018-05-24T12:16:52.182Z,1016.2
2018-05-24T12:17:54.245Z,1016.1
2018-05-24T12:18:56.302Z,1016.2
2018-05-24T12:19:58.359Z,1016.1
2018-05-24T12:21:00.736Z,1016.1
2018-05-24T12:22:02.795Z,1016.2
2018-05-24T12:23:04.865Z,1016.2
2018-05-24T12:24:06.915Z,1016.2
2018-05-24T12:25:08.982Z,1016.2
2018-05-24T12:26:11.043Z,1016.1
2018-05-24T12:27:13.096Z,1016.2
2018-05-24T12:28:15.153Z,1016.1
2018-05-24T12:29:17.506Z,1016.1
2018-05-24T12:30:19.566Z,1016.1
2018-05-24T12:31:21.627Z,1016
2018-05-24T12:32:23.681Z,1016
2018-05-24T12:33:25.755Z,1016
2018-05-24T12:34:28.098Z,1016
2018-05-24T12:35:30.289Z,1016.1
2018-05-24T12:36:32.220Z,1016
2018-05-24T12:37:34.274Z,1016
2018-05-24T12:38:36.336Z,1015.9
2018-05-24T12:39:38.391Z,1016
2018-05-24T12:40:40.451Z,1016
2018-05-24T12:41:42.535Z,1015.9
2018-05-24T12:42:45.186Z,1016
2018-05-24T12:43:47.563Z,1016
2018-05-24T12:44:49.620Z,1016
2018-05-24T12:45:51.983Z,1015.9
2018-05-24T12:46:54.049Z,1015.8
2018-05-24T12:47:56.111Z,1015.9
2018-05-24T12:48:58.848Z,1015.8
2018-05-24T12:50:00.843Z,1015.8
2018-05-24T12:51:02.891Z,1015.8
2018-05-24T12:52:04.957Z,1015.9
2018-05-24T12:53:07.296Z,1015.8
2018-05-24T12:54:10.036Z,1015.8
2018-05-24T12:55:12.101Z,1015.8
2018-05-24T12:56:14.431Z,1015.8
2018-05-24T12:57:16.484Z,1015.8
2018-05-24T12:58:18.555Z,1015.8
2018-05-24T12:59:20.609Z,1015.7